Time;durP1;ratioP1;P1;durP2;ratioP2;P2;SDS_P1;SDS_P2;PMS_P1;PMS_P2;Temp;Humidity;BMP_temperature;BMP_pressure;BME280_temperature;BME280_humidity;BME280_pressure;Samples;Min_cycle;Max_cycle;Signal;HPM_P1;HPM_P2
2023/05/18 00:00:00;;;;;;;7.00;2.35;;;;;;;3.63;100.00;103021.84;5135918;27;20043;-74
2023/05/18 00:02:26;;;;;;;5.50;2.50;;;;;;;3.60;100.00;103020.16;5134204;27;20150;-74
2023/05/18 00:04:51;;;;;;;5.63;2.03;;;;;;;3.60;100.00;103016.63;5134472;27;20059;-75
2023/05/18 00:07:17;;;;;;;10.98;2.72;;;;;;;3.60;100.00;103022.78;5135698;27;20051;-73
2023/05/18 00:09:42;;;;;;;5.85;2.85;;;;;;;3.57;100.00;103011.44;5135510;27;20038;-73
2023/05/18 00:12:11;;;;;;;5.22;2.25;;;;;;;3.53;100.00;103018.59;5135497;27;20054;-73
2023/05/18 00:14:36;;;;;;;7.95;2.53;;;;;;;3.49;100.00;103016.94;5135469;27;20034;-73
2023/05/18 00:17:02;;;;;;;7.47;2.17;;;;;;;3.46;100.00;103015.25;5135419;27;20031;-73
2023/05/18 00:19:31;;;;;;;5.28;2.10;;;;;;;3.46;100.00;103017.00;5135418;27;20451;-73
2023/05/18 00:21:56;;;;;;;13.52;3.10;;;;;;;3.42;100.00;103015.34;5135245;27;20023;-74
2023/05/18 00:24:22;;;;;;;5.45;2.10;;;;;;;3.39;100.00;103018.94;5134677;27;20106;-74
2023/05/18 00:26:48;;;;;;;5.50;2.05;;;;;;;3.36;100.00;103019.03;5134477;27;20467;-74
2023/05/18 00:29:14;;;;;;;4.97;1.95;;;;;;;3.33;100.00;103021.75;5134913;27;20031;-74
2023/05/18 00:31:40;;;;;;;7.70;2.15;;;;;;;3.31;100.00;103016.50;5135343;27;20031;-74
2023/05/18 00:34:10;;;;;;;6.90;2.35;;;;;;;3.30;100.00;103021.78;5133900;27;20126;-74
2023/05/18 00:36:36;;;;;;;7.90;2.20;;;;;;;3.28;100.00;103021.81;5133444;27;20478;-74
2023/05/18 00:39:03;;;;;;;8.82;2.97;;;;;;;3.26;100.00;103018.38;5133392;27;20031;-74
2023/05/18 00:41:29;;;;;;;7.43;2.95;;;;;;;3.25;100.00;103015.78;5135105;27;20401;-74
2023/05/18 00:43:55;;;;;;;5.70;2.13;;;;;;;3.22;100.00;103015.88;5134874;27;20066;-74
2023/05/18 00:46:22;;;;;;;6.40;2.08;;;;;;;3.21;100.00;103017.66;5134661;27;20039;-74
2023/05/18 00:48:48;;;;;;;8.40;2.33;;;;;;;3.22;100.00;103019.34;5133480;27;20532;-74
2023/05/18 00:51:14;;;;;;;7.47;2.38;;;;;;;3.26;100.00;103020.16;5134738;27;20039;-74
2023/05/18 00:53:40;;;;;;;7.18;2.53;;;;;;;3.25;100.00;103013.16;5133516;27;20035;-74
2023/05/18 00:56:06;;;;;;;6.97;2.30;;;;;;;3.23;100.00;103005.31;5134859;27;20027;-72
2023/05/18 00:58:32;;;;;;;6.15;2.30;;;;;;;3.22;100.00;103013.22;5133407;27;20112;-74
2023/05/18 01:00:57;;;;;;;6.80;2.47;;;;;;;3.20;100.00;103015.06;5134949;27;20042;-75
2023/05/18 01:03:25;;;;;;;7.18;2.40;;;;;;;3.20;100.00;103015.06;5134550;27;20031;-74
2023/05/18 01:05:54;;;;;;;8.32;2.65;;;;;;;3.21;100.00;103022.03;5134475;27;20496;-73
2023/05/18 01:08:25;;;;;;;6.88;2.88;;;;;;;3.25;100.00;103021.03;5134630;27;20024;-74
2023/05/18 01:11:02;;;;;;;7.55;2.90;;;;;;;3.25;100.00;103036.84;5134683;27;20130;-73
2023/05/18 01:13:53;;;;;;;8.68;2.72;;;;;;;3.27;100.00;103037.66;5134128;27;20459;-74
2023/05/18 01:16:27;;;;;;;7.57;3.00;;;;;;;3.28;100.00;103028.88;5134266;27;20029;-74
2023/05/18 01:19:01;;;;;;;8.40;2.78;;;;;;;3.29;100.00;103031.47;5133979;27;20068;-74
2023/05/18 01:21:41;;;;;;;5.57;2.72;;;;;;;3.30;100.00;103027.03;5134244;27;20031;-74
2023/05/18 01:24:24;;;;;;;6.45;2.80;;;;;;;3.30;100.00;103029.69;5134061;27;20113;-73
2023/05/18 01:26:56;;;;;;;5.88;2.47;;;;;;;3.28;100.00;103021.81;5134973;27;20200;-74
2023/05/18 01:29:21;;;;;;;;;;;;;;;3.28;100.00;103021.81;5134669;27;20027;-74
2023/05/18 01:31:47;;;;;;;7.13;3.15;;;;;;;3.29;100.00;103023.56;5134376;27;19908;-74
2023/05/18 01:34:12;;;;;;;7.57;2.80;;;;;;;3.28;100.00;103024.44;5132921;27;20366;-74
2023/05/18 01:36:37;;;;;;;7.78;3.00;;;;;;;3.28;100.00;103026.22;5134042;27;20027;-73
2023/05/18 01:39:04;;;;;;;6.35;3.08;;;;;;;3.28;100.00;103026.22;5133982;27;20065;-74
2023/05/18 01:41:35;;;;;;;9.27;2.50;;;;;;;3.28;100.00;103027.09;5134657;27;20038;-74
2023/05/18 01:44:25;;;;;;;7.88;3.05;;;;;;;3.29;100.00;103027.97;5132748;27;20031;-75
2023/05/18 01:47:00;;;;;;;6.55;2.63;;;;;;;3.28;100.00;103024.44;5133725;27;20027;-73
2023/05/18 01:49:40;;;;;;;11.82;3.08;;;;;;;3.29;100.00;103027.97;5134252;27;20039;-74
2023/05/18 01:52:10;;;;;;;9.82;3.30;;;;;;;3.26;100.00;103035.94;5133937;27;20031;-74
2023/05/18 01:54:40;;;;;;;5.25;3.00;;;;;;;3.24;100.00;103035.09;5133921;27;20068;-74
2023/05/18 01:57:07;;;;;;;8.63;3.03;;;;;;;3.22;100.00;103026.38;5133793;27;20023;-74
2023/05/18 01:59:32;;;;;;;9.68;3.70;;;;;;;3.19;100.00;103035.22;5133859;27;20031;-74
2023/05/18 02:01:59;;;;;;;12.10;4.15;;;;;;;3.17;100.00;103031.78;5133798;27;20138;-74
2023/05/18 02:04:25;;;;;;;12.38;4.55;;;;;;;3.14;100.00;103030.06;5133724;27;20031;-74
2023/05/18 02:06:53;;;;;;;9.57;4.13;;;;;;;3.13;100.00;103030.09;5133769;27;20363;-73
2023/05/18 02:09:21;;;;;;;7.88;3.25;;;;;;;3.10;100.00;103031.03;5132349;28;20031;-74
2023/05/18 02:11:47;;;;;;;6.82;3.05;;;;;;;3.04;100.00;103027.69;5133195;27;20083;-74
2023/05/18 02:14:12;;;;;;;9.23;3.38;;;;;;;2.98;100.00;103031.34;5132305;28;20132;-74
2023/05/18 02:16:38;;;;;;;7.55;3.30;;;;;;;2.96;100.00;103030.53;5134137;27;20043;-74
2023/05/18 02:19:03;;;;;;;10.32;3.78;;;;;;;2.96;100.00;103033.16;5133617;27;20084;-73
2023/05/18 02:21:29;;;;;;;10.00;3.30;;;;;;;2.93;100.00;103034.06;5132342;28;20039;-73
2023/05/18 02:23:55;;;;;;;13.30;3.50;;;;;;;2.94;100.00;103033.19;5133625;27;20348;-73
2023/05/18 02:26:20;;;;;;;6.13;3.28;;;;;;;2.93;100.00;103030.59;5134560;27;20074;-73
2023/05/18 02:28:45;;;;;;;8.00;3.55;;;;;;;2.92;100.00;103028.84;5137242;27;20029;-73
2023/05/18 02:31:11;;;;;;;9.07;3.58;;;;;;;2.89;100.00;103026.28;5137270;27;20034;-73
2023/05/18 02:33:41;;;;;;;10.10;3.53;;;;;;;2.88;100.00;103021.94;5136206;27;20028;-73
2023/05/18 02:36:07;;;;;;;8.95;3.38;;;;;;;2.87;100.00;103026.34;5137045;27;20475;-74
2023/05/18 02:38:42;;;;;;;8.40;3.75;;;;;;;2.88;100.00;103030.69;5136981;27;20101;-73
2023/05/18 02:41:08;;;;;;;8.88;3.72;;;;;;;2.88;100.00;103028.06;5137098;27;20023;-73
2023/05/18 02:43:34;;;;;;;8.35;3.75;;;;;;;2.83;100.00;103014.16;5137120;27;20034;-73
2023/05/18 02:45:59;;;;;;;6.82;3.70;;;;;;;2.80;100.00;103017.72;5137168;27;20118;-73
2023/05/18 02:48:25;;;;;;;8.18;3.45;;;;;;;2.80;100.00;103022.09;5135875;27;20427;-73
2023/05/18 02:50:50;;;;;;;8.50;3.83;;;;;;;2.76;100.00;103023.97;5136830;27;20038;-73
2023/05/18 02:53:16;;;;;;;9.63;3.20;;;;;;;2.72;100.00;103022.28;5137035;27;20031;-74
2023/05/18 02:55:42;;;;;;;11.02;3.60;;;;;;;2.71;100.00;103022.31;5136936;27;20062;-73
2023/05/18 02:58:08;;;;;;;5.00;3.00;;;;;;;2.68;100.00;103018.00;5135606;27;20076;-74
2023/05/18 03:00:34;;;;;;;12.02;3.40;;;;;;;2.65;100.00;103018.06;5136956;27;20023;-73
2023/05/18 03:03:01;;;;;;;12.80;4.32;;;;;;;2.64;100.00;103018.94;5137010;27;20114;-73
2023/05/18 03:05:27;;;;;;;10.48;3.50;;;;;;;2.67;100.00;103026.78;5136670;27;20027;-73
2023/05/18 03:07:53;;;;;;;8.52;3.70;;;;;;;2.67;100.00;103023.28;5136673;27;20031;-74
2023/05/18 03:10:20;;;;;;;12.15;3.80;;;;;;;2.65;100.00;103021.53;5136327;27;20092;-73
2023/05/18 03:12:46;;;;;;;5.78;2.90;;;;;;;2.65;100.00;103016.28;5136798;27;20096;-74
2023/05/18 03:15:12;;;;;;;7.10;3.33;;;;;;;2.63;100.00;103018.09;5137434;27;20091;-74
2023/05/18 03:17:42;;;;;;;9.00;3.50;;;;;;;2.67;100.00;103020.66;5137141;27;20035;-74
2023/05/18 03:20:10;;;;;;;8.32;3.63;;;;;;;2.69;100.00;103021.47;5136829;27;20023;-74
2023/05/18 03:22:36;;;;;;;11.32;3.72;;;;;;;2.70;100.00;103029.31;5136907;27;20038;-74
2023/05/18 03:25:01;;;;;;;6.07;3.00;;;;;;;2.68;100.00;103025.88;5136526;27;20535;-74
2023/05/18 03:27:27;;;;;;;10.40;3.97;;;;;;;2.70;100.00;103025.84;5136609;27;20031;-74
2023/05/18 03:29:53;;;;;;;11.75;3.50;;;;;;;2.69;100.00;103026.72;5136404;27;20485;-73
2023/05/18 03:32:18;;;;;;;8.80;3.13;;;;;;;2.67;100.00;103024.13;5136376;27;20046;-74
2023/05/18 03:34:46;;;;;;;6.80;3.53;;;;;;;2.68;100.00;103027.66;5136279;27;20046;-74
2023/05/18 03:37:12;;;;;;;5.50;2.78;;;;;;;2.68;100.00;103025.03;5135926;27;20085;-74
2023/05/18 03:39:38;;;;;;;7.50;2.85;;;;;;;2.66;100.00;103022.44;5134412;27;20520;-74
2023/05/18 03:42:03;;;;;;;5.10;2.70;;;;;;;2.61;100.00;103019.03;5136105;27;20118;-74
2023/05/18 03:44:28;;;;;;;9.88;3.60;;;;;;;2.61;100.00;103024.28;5134606;27;20035;-75
2023/05/18 03:46:54;;;;;;;8.55;3.25;;;;;;;2.60;100.00;103015.53;5135960;27;20028;-74
2023/05/18 03:49:19;;;;;;;6.43;3.55;;;;;;;2.63;100.00;103027.75;5134785;27;20423;-74
2023/05/18 03:51:45;;;;;;;9.80;3.38;;;;;;;2.65;100.00;103020.69;5136130;27;20035;-74
2023/05/18 03:54:10;;;;;;;9.10;3.75;;;;;;;2.64;100.00;103025.09;5135854;27;20485;-74
2023/05/18 03:56:36;;;;;;;6.68;3.10;;;;;;;2.63;100.00;103025.13;5135657;27;20038;-74
2023/05/18 03:59:02;;;;;;;6.28;3.22;;;;;;;2.63;100.00;103030.38;5135821;27;20034;-74
2023/05/18 04:01:29;;;;;;;6.95;3.22;;;;;;;2.60;100.00;103028.69;5135603;27;20110;-74
2023/05/18 04:03:56;;;;;;;10.80;3.80;;;;;;;2.60;100.00;103026.06;5135618;27;20023;-74
2023/05/18 04:06:22;;;;;;;4.50;2.70;;;;;;;2.61;100.00;103029.53;5135811;27;20031;-74
2023/05/18 04:08:48;;;;;;;7.15;2.83;;;;;;;2.61;100.00;103024.28;5134242;27;20035;-74
2023/05/18 04:11:14;;;;;;;9.25;2.90;;;;;;;2.63;100.00;103028.63;5135908;27;20059;-74
2023/05/18 04:13:40;;;;;;;9.65;3.20;;;;;;;2.69;100.00;103032.88;5135337;27;20551;-74
2023/05/18 04:16:06;;;;;;;11.65;3.75;;;;;;;2.74;100.00;103028.38;5135329;27;20031;-75
2023/05/18 04:18:32;;;;;;;6.32;3.25;;;;;;;2.78;100.00;103031.81;5135524;27;20042;-74
2023/05/18 04:20:57;;;;;;;11.40;3.80;;;;;;;2.80;100.00;103036.09;5135914;27;20084;-74
2023/05/18 04:23:22;;;;;;;8.15;3.60;;;;;;;2.86;100.00;103036.88;5133614;27;20063;-74
2023/05/18 04:25:48;;;;;;;6.20;3.30;;;;;;;2.91;100.00;103038.53;5134857;27;20071;-74
2023/05/18 04:28:13;;;;;;;9.20;2.78;;;;;;;2.94;100.00;103041.06;5133690;27;20027;-74
2023/05/18 04:30:39;;;;;;;9.13;3.40;;;;;;;2.99;100.00;103038.34;5135070;27;20451;-74
2023/05/18 04:33:07;;;;;;;10.85;4.13;;;;;;;3.05;100.00;103045.22;5134557;27;20042;-74
2023/05/18 04:35:33;;;;;;;8.88;3.80;;;;;;;3.10;100.00;103043.34;5134915;27;20042;-74
2023/05/18 04:37:58;;;;;;;9.40;3.67;;;;;;;3.14;100.00;103045.84;5133787;27;20404;-74
2023/05/18 04:40:24;;;;;;;9.15;3.50;;;;;;;3.19;100.00;103053.63;5134442;27;20046;-75
2023/05/18 04:42:50;;;;;;;9.68;3.70;;;;;;;3.27;100.00;103050.81;5134475;27;20118;-74
2023/05/18 04:45:20;;;;;;;8.65;3.45;;;;;;;3.33;100.00;103050.69;5134895;27;20027;-75
2023/05/18 04:47:47;;;;;;;9.10;3.90;;;;;;;3.41;100.00;103059.25;5135148;27;20042;-74
2023/05/18 04:50:16;;;;;;;6.68;3.58;;;;;;;3.49;100.00;103056.41;5134003;27;20098;-74
2023/05/18 04:52:47;;;;;;;12.02;3.78;;;;;;;3.57;100.00;103062.34;5135352;27;20538;-74
2023/05/18 04:55:21;;;;;;;9.52;3.83;;;;;;;3.67;100.00;103071.75;5134879;27;20033;-73
2023/05/18 04:57:48;;;;;;;11.23;3.55;;;;;;;3.79;100.00;103069.69;5134663;27;20027;-74
2023/05/18 05:00:14;;;;;;;10.88;3.58;;;;;;;3.89;100.00;103073.81;5134261;27;20028;-74
2023/05/18 05:02:39;;;;;;;9.90;3.90;;;;;;;4.02;100.00;103069.09;5133926;27;20126;-74
2023/05/18 05:05:05;;;;;;;10.77;3.50;;;;;;;4.13;100.00;103072.28;5134472;27;20062;-74
2023/05/18 05:07:31;;;;;;;7.43;3.70;;;;;;;4.25;100.00;103076.34;5134576;27;20114;-72
2023/05/18 05:09:56;;;;;;;11.38;3.20;;;;;;;4.35;100.00;103069.03;5134294;27;20505;-73
2023/05/18 05:12:21;;;;;;;9.65;3.13;;;;;;;4.43;100.00;103069.66;5133900;27;20423;-73
2023/05/18 05:14:47;;;;;;;12.45;4.18;;;;;;;4.49;100.00;103074.75;5133869;27;20410;-74
2023/05/18 05:17:12;;;;;;;17.33;4.03;;;;;;;4.55;100.00;103071.97;5134283;27;20031;-74
2023/05/18 05:19:37;;;;;;;10.77;3.40;;;;;;;4.62;100.00;103075.28;5133639;27;20037;-73
2023/05/18 05:22:03;;;;;;;13.52;3.30;;;;;;;4.68;100.00;103068.97;5133478;27;20031;-73
2023/05/18 05:24:28;;;;;;;9.13;2.95;;;;;;;4.72;100.00;103068.81;5133096;27;20118;-74
2023/05/18 05:26:53;;;;;;;6.85;2.90;;;;;;;4.80;100.00;103063.31;5134042;27;20459;-74
2023/05/18 05:29:19;;;;;;;17.30;3.63;;;;;;;4.84;100.00;103053.53;5133897;27;20581;-74
2023/05/18 05:31:45;;;;;;;16.50;3.10;;;;;;;4.90;100.00;103066.53;5134048;27;20035;-73
2023/05/18 05:34:10;;;;;;;9.15;2.88;;;;;;;4.93;100.00;103063.81;5134144;27;20136;-74
2023/05/18 05:36:36;;;;;;;6.82;2.97;;;;;;;4.99;100.00;103070.66;5132655;27;20408;-74
2023/05/18 05:39:02;;;;;;;9.35;3.17;;;;;;;5.02;100.00;103062.66;5134357;27;20054;-74
2023/05/18 05:41:27;;;;;;;10.68;2.90;;;;;;;5.06;100.00;103067.78;5134006;27;20027;-75
2023/05/18 05:43:53;;;;;;;17.95;3.45;;;;;;;5.13;100.00;103073.72;5134160;27;20023;-74
2023/05/18 05:46:18;;;;;;;7.82;3.30;;;;;;;5.21;100.00;103069.06;5134379;28;20035;-74
2023/05/18 05:48:43;;;;;;;9.68;3.40;;;;;;;5.33;100.00;103067.81;5133872;27;20420;-74
2023/05/18 05:51:09;;;;;;;9.48;3.50;;;;;;;5.45;100.00;103071.81;5132762;28;20054;-74
2023/05/18 05:53:34;;;;;;;11.23;2.90;;;;;;;5.58;100.00;103069.63;5133756;28;20031;-75
2023/05/18 05:56:00;;;;;;;9.43;3.30;;;;;;;5.68;100.00;103076.31;5133880;27;20027;-74
2023/05/18 05:58:25;;;;;;;9.07;2.80;;;;;;;5.77;100.00;103081.28;5134405;27;20117;-74
2023/05/18 06:00:51;;;;;;;8.35;2.50;;;;;;;5.85;100.00;103088.06;5135875;27;20031;-74
2023/05/18 06:03:16;;;;;;;6.47;2.45;;;;;;;6.01;100.00;103086.66;5138512;27;20428;-73
2023/05/18 06:05:42;;;;;;;10.65;2.92;;;;;;;6.25;100.00;103089.34;5136656;27;20030;-73
2023/05/18 06:08:08;;;;;;;14.32;3.08;;;;;;;6.48;100.00;103084.06;5138067;27;20023;-73
2023/05/18 06:10:33;;;;;;;12.98;3.05;;;;;;;6.74;100.00;103087.50;5137185;27;20376;-74
2023/05/18 06:12:58;;;;;;;13.93;3.67;;;;;;;6.99;100.00;103092.69;5137999;27;20060;-74
2023/05/18 06:15:24;;;;;;;12.18;3.08;;;;;;;7.26;100.00;103086.38;5137396;27;20471;-75
2023/05/18 06:17:49;;;;;;;8.80;2.40;;;;;;;7.47;100.00;103080.19;5137654;27;20076;-74
2023/05/18 06:20:14;;;;;;;8.93;2.60;;;;;;;7.71;100.00;103093.31;5136339;27;20027;-74
2023/05/18 06:22:40;;;;;;;13.52;2.53;;;;;;;7.92;100.00;103088.88;5137921;27;20042;-74
2023/05/18 06:25:07;;;;;;;9.65;3.17;;;;;;;8.13;100.00;103100.34;5137106;27;20027;-74
2023/05/18 06:27:32;;;;;;;16.45;2.97;;;;;;;8.30;100.00;103103.09;5137605;27;20031;-74
2023/05/18 06:29:57;;;;;;;8.38;2.72;;;;;;;8.45;100.00;103101.59;5137429;27;20490;-74
2023/05/18 06:32:23;;;;;;;11.52;2.50;;;;;;;8.62;100.00;103103.44;5137489;27;20027;-74
2023/05/18 06:34:49;;;;;;;7.85;2.78;;;;;;;8.83;100.00;103111.34;5136043;27;20028;-74
2023/05/18 06:37:16;;;;;;;9.88;2.20;;;;;;;8.86;100.00;103108.56;5137634;27;20028;-74
2023/05/18 06:39:41;;;;;;;9.75;2.40;;;;;;;8.96;100.00;103114.31;5137193;27;20043;-74
2023/05/18 06:42:06;;;;;;;8.85;2.67;;;;;;;9.04;100.00;103112.13;5119457;27;20034;-75
2023/05/18 06:44:34;;;;;;;8.98;2.25;;;;;;;9.14;100.00;103109.91;5137212;27;20027;-74
2023/05/18 06:46:59;;;;;;;11.63;2.42;;;;;;;9.15;100.00;103106.28;5137204;27;20027;-75
2023/05/18 06:49:25;;;;;;;17.25;3.05;;;;;;;9.06;100.00;103102.31;5137158;27;20114;-75
2023/05/18 06:51:50;;;;;;;11.82;2.38;;;;;;;9.15;100.00;103111.59;5137422;27;20104;-75
2023/05/18 06:54:16;;;;;;;13.82;2.35;;;;;;;9.26;100.00;103108.44;5137395;27;20035;-74
2023/05/18 06:56:41;;;;;;;8.88;2.47;;;;;;;9.41;100.00;103106.81;5136976;27;20455;-75
2023/05/18 06:59:07;;;;;;;6.53;2.33;;;;;;;9.52;100.00;103107.13;5136701;27;20033;-73
2023/05/18 07:01:32;;;;;;;13.52;2.97;;;;;;;9.59;100.00;103099.72;5137446;27;20118;-75
2023/05/18 07:03:58;;;;;;;12.13;2.50;;;;;;;9.64;100.00;103103.00;5137050;27;20031;-75
2023/05/18 07:06:23;;;;;;;11.30;3.15;;;;;;;9.52;100.00;103104.47;5136937;27;20424;-74
2023/05/18 07:08:48;;;;;;;14.75;2.70;;;;;;;9.58;100.00;103103.31;5136501;27;20031;-75
2023/05/18 07:11:14;;;;;;;12.05;2.50;;;;;;;9.57;100.00;103102.47;5136787;27;20104;-75
2023/05/18 07:13:39;;;;;;;13.15;3.08;;;;;;;9.58;100.00;103103.31;5136088;27;20032;-76
2023/05/18 07:16:05;;;;;;;11.77;3.42;;;;;;;9.57;100.00;103107.78;5137314;27;20027;-76
2023/05/18 07:18:30;;;;;;;7.13;2.65;;;;;;;9.60;100.00;103114.72;5136913;27;20538;-74
2023/05/18 07:20:56;;;;;;;12.25;2.47;;;;;;;9.63;100.00;103106.59;5136765;27;20027;-76
2023/05/18 07:23:22;;;;;;;9.50;2.03;;;;;;;9.68;100.00;103101.91;5137118;27;20027;-75
2023/05/18 07:25:48;;;;;;;12.25;2.53;;;;;;;9.69;100.00;103101.84;5136906;27;20139;-74
2023/05/18 07:28:13;;;;;;;9.60;2.83;;;;;;;9.87;100.00;103113.31;5136504;27;20328;-75
2023/05/18 07:30:39;;;;;;;11.75;2.88;;;;;;;9.97;100.00;103115.50;5136513;27;20527;-74
2023/05/18 07:33:04;;;;;;;10.43;2.17;;;;;;;10.00;100.00;103116.22;5136222;27;20031;-75
2023/05/18 07:35:30;;;;;;;10.77;2.22;;;;;;;9.96;100.00;103114.66;5136265;27;20122;-75
2023/05/18 07:37:56;;;;;;;10.13;2.85;;;;;;;10.10;100.00;103116.59;5136180;27;20042;-75
2023/05/18 07:40:21;;;;;;;11.32;2.45;;;;;;;10.30;100.00;103120.00;5135561;27;20074;-75
2023/05/18 07:42:47;;;;;;;7.25;2.25;;;;;;;10.46;100.00;103125.41;5135705;27;20031;-76
2023/05/18 07:45:12;;;;;;;7.32;2.30;;;;;;;10.61;100.00;103121.03;5135915;27;20102;-76
2023/05/18 07:47:38;;;;;;;10.07;2.80;;;;;;;10.68;100.00;103115.31;5136123;27;20031;-75
2023/05/18 07:50:05;;;;;;;7.85;2.30;;;;;;;10.76;100.00;103120.19;5136505;27;20034;-76
2023/05/18 07:52:30;;;;;;;15.10;3.08;;;;;;;10.69;100.00;103122.34;5136049;27;20046;-76
2023/05/18 07:54:56;;;;;;;8.15;2.20;;;;;;;10.69;100.00;103114.38;5136378;27;20035;-76
2023/05/18 07:57:21;;;;;;;10.18;2.85;;;;;;;10.83;100.00;103123.41;5134815;27;20023;-75
2023/05/18 07:59:47;;;;;;;16.10;3.05;;;;;;;10.90;100.00;103117.63;5135890;27;20055;-76
2023/05/18 08:02:12;;;;;;;12.75;2.60;;;;;;;11.09;100.00;103122.81;5135869;27;20118;-75
2023/05/18 08:04:37;;;;;;;10.02;2.17;;;;;;;11.13;100.00;103107.50;5135463;27;20467;-75
2023/05/18 08:07:03;;;;;;;8.75;2.08;;;;;;;11.09;100.00;103120.13;5136022;27;20117;-76
2023/05/18 08:09:29;;;;;;;9.88;3.10;;;;;;;11.10;100.00;103110.31;5135717;27;20122;-75
2023/05/18 08:11:55;;;;;;;12.50;2.78;;;;;;;11.10;94.27;103121.84;5135397;27;20098;-76
2023/05/18 08:14:20;;;;;;;6.75;2.03;;;;;;;11.23;94.84;103114.00;5134341;27;20039;-76
2023/05/18 08:16:46;;;;;;;8.52;2.17;;;;;;;11.46;84.70;103112.69;5135476;27;20104;-76
2023/05/18 08:19:11;;;;;;;6.30;2.38;;;;;;;11.69;87.62;103112.28;5135607;27;20035;-76
2023/05/18 08:21:37;;;;;;;11.25;2.35;;;;;;;11.63;80.68;103110.84;5134103;27;20131;-76
2023/05/18 08:24:03;;;;;;;8.25;2.63;;;;;;;11.83;84.68;103112.31;5116305;27;20031;-76
2023/05/18 08:26:28;;;;;;;10.75;2.20;;;;;;;11.92;86.53;103102.91;5135520;27;20031;-74
2023/05/18 08:28:54;;;;;;;5.32;2.20;;;;;;;12.02;84.55;103114.78;5135456;27;20035;-76
2023/05/18 08:31:20;;;;;;;9.57;2.40;;;;;;;12.07;80.85;103110.00;5135407;27;20034;-75
2023/05/18 08:33:46;;;;;;;16.83;2.35;;;;;;;12.24;76.03;103110.78;5135108;27;20030;-75
2023/05/18 08:36:11;;;;;;;13.88;2.70;;;;;;;12.32;74.10;103120.03;5135221;27;20413;-75
2023/05/18 08:38:37;;;;;;;10.02;2.35;;;;;;;12.50;79.37;103115.34;5135046;27;20520;-76
2023/05/18 08:41:37;;;;;;;10.50;2.75;;;;;;;12.46;72.14;103121.00;5134967;27;20031;-76
2023/05/18 08:44:08;;;;;;;5.95;2.03;;;;;;;12.46;75.74;103115.66;5135149;27;20038;-76
2023/05/18 08:46:38;;;;;;;12.20;2.78;;;;;;;12.28;73.07;103113.16;5135345;27;20019;-76
2023/05/18 08:49:05;;;;;;;7.97;2.83;;;;;;;12.35;74.47;103114.50;5134936;27;20045;-76
2023/05/18 08:51:33;;;;;;;10.95;2.90;;;;;;;12.44;74.63;103117.56;5134800;27;20028;-75
2023/05/18 08:54:00;;;;;;;8.07;2.97;;;;;;;12.40;71.03;103121.38;5135420;27;20030;-77
2023/05/18 08:56:26;;;;;;;7.47;2.30;;;;;;;12.60;75.53;103110.31;5134837;27;20125;-76
2023/05/18 08:58:55;;;;;;;11.82;3.05;;;;;;;12.94;68.98;103112.63;5134701;27;20055;-77
2023/05/18 09:01:26;;;;;;;9.63;3.17;;;;;;;13.07;61.88;103113.53;5135198;27;20035;-77
2023/05/18 09:03:52;;;;;;;;;;;;;;;12.82;66.16;103111.59;5135359;27;20368;-77
2023/05/18 09:06:19;;;;;;;8.40;2.47;;;;;;;12.82;63.91;103111.59;5134717;27;20011;-76
2023/05/18 09:08:45;;;;;;;9.55;2.60;;;;;;;12.34;64.96;103106.59;5134747;27;20087;-77
2023/05/18 09:11:12;;;;;;;12.15;3.00;;;;;;;12.22;70.21;103105.53;5134666;27;20054;-77
2023/05/18 09:13:37;;;;;;;12.50;2.65;;;;;;;12.34;67.97;103098.59;5133289;27;20069;-76
2023/05/18 09:16:03;;;;;;;10.75;2.40;;;;;;;12.40;71.43;103097.34;5133295;27;20066;-77
2023/05/18 09:18:28;;;;;;;9.82;2.80;;;;;;;12.39;70.90;103090.28;5135068;27;20111;-77
2023/05/18 09:20:54;;;;;;;9.85;2.78;;;;;;;12.61;76.96;103082.63;5133348;27;20106;-76
2023/05/18 09:23:19;;;;;;;5.90;2.67;;;;;;;12.93;69.16;103084.19;5134381;27;20502;-77
2023/05/18 09:25:48;;;;;;;9.55;2.83;;;;;;;13.40;65.07;103083.78;5134210;27;20125;-77
2023/05/18 09:28:25;;;;;;;10.60;3.30;;;;;;;13.65;62.57;103076.75;5134373;27;20478;-75
2023/05/18 09:30:52;;;;;;;9.40;2.85;;;;;;;14.72;64.05;103072.84;5134349;27;20031;-76
2023/05/18 09:33:20;;;;;;;13.02;2.67;;;;;;;15.99;57.67;103068.72;5134647;27;20027;-76
2023/05/18 09:35:46;;;;;;;7.15;2.55;;;;;;;16.67;51.41;103066.81;5133804;27;20023;-76
2023/05/18 09:38:20;;;;;;;12.00;2.53;;;;;;;17.21;53.10;103075.00;5134333;27;20466;-75
2023/05/18 09:40:47;;;;;;;9.65;2.90;;;;;;;17.03;51.14;103074.72;5134213;27;20064;-77
2023/05/18 09:43:13;;;;;;;11.43;2.58;;;;;;;17.21;49.37;103067.81;5134420;27;20027;-77
2023/05/18 09:45:44;;;;;;;8.30;2.92;;;;;;;17.10;50.43;103076.75;5133311;27;20027;-75
2023/05/18 09:48:10;;;;;;;17.30;3.08;;;;;;;16.70;50.60;103073.78;5134162;27;20023;-75
2023/05/18 09:50:36;;;;;;;6.45;2.50;;;;;;;16.97;49.13;103083.28;5133799;27;20027;-77
2023/05/18 09:53:06;;;;;;;8.52;2.58;;;;;;;17.43;47.45;103068.69;5133839;28;20163;-76
2023/05/18 09:55:35;;;;;;;9.40;2.30;;;;;;;18.37;49.04;103079.44;5133845;27;20038;-76
2023/05/18 09:58:03;;;;;;;8.35;2.40;;;;;;;18.43;45.85;103075.34;5134583;27;20078;-77
2023/05/18 10:00:28;;;;;;;10.60;3.60;;;;;;;18.79;43.59;103078.41;5133926;27;20494;-76
2023/05/18 10:02:55;;;;;;;12.40;2.63;;;;;;;18.72;44.40;103086.22;5133682;28;20031;-76
2023/05/18 10:05:22;;;;;;;6.97;2.38;;;;;;;18.71;42.99;103078.25;5133875;27;20123;-75
2023/05/18 10:07:49;;;;;;;8.10;2.40;;;;;;;18.97;43.95;103081.31;5133865;27;20033;-76
2023/05/18 10:10:19;;;;;;;10.68;2.75;;;;;;;19.05;44.81;103080.59;5133860;27;20479;-75
2023/05/18 10:12:45;;;;;;;5.47;2.22;;;;;;;19.11;43.83;103085.41;5134099;27;20041;-77
2023/05/18 10:15:16;;;;;;;11.23;2.65;;;;;;;19.27;41.76;103079.47;5134368;27;20035;-77
2023/05/18 10:17:43;;;;;;;9.63;2.72;;;;;;;19.01;42.34;103083.56;5134331;27;20035;-75
2023/05/18 10:20:09;;;;;;;7.43;2.63;;;;;;;19.03;41.69;103080.75;5133884;27;20031;-76
2023/05/18 10:22:36;;;;;;;11.65;2.55;;;;;;;19.02;42.60;103074.50;5132681;28;20533;-77
2023/05/18 10:25:05;;;;;;;9.82;2.45;;;;;;;19.27;39.56;103065.97;5134353;27;20370;-76
2023/05/18 10:27:34;;;;;;;7.18;2.88;;;;;;;20.21;41.26;103071.50;5133747;27;20027;-79
2023/05/18 10:30:02;;;;;;;8.95;3.10;;;;;;;20.59;40.92;103068.72;5134191;27;20113;-76
2023/05/18 10:32:29;;;;;;;11.32;2.50;;;;;;;20.49;40.39;103063.38;5133830;27;20042;-77
2023/05/18 10:34:56;;;;;;;8.73;2.75;;;;;;;20.31;40.13;103062.47;5134010;27;20147;-77
2023/05/18 10:37:23;;;;;;;10.30;2.75;;;;;;;20.36;41.58;103063.75;5133889;27;20031;-77
2023/05/18 10:39:50;;;;;;;9.77;2.70;;;;;;;20.65;41.28;103062.72;5133589;27;20061;-77
2023/05/18 10:42:17;;;;;;;9.10;2.58;;;;;;;20.77;39.54;103066.91;5133548;27;20106;-78
2023/05/18 10:44:46;;;;;;;9.55;2.95;;;;;;;20.97;39.99;103064.06;5132908;28;20366;-77
2023/05/18 10:47:13;;;;;;;7.90;2.70;;;;;;;20.61;39.51;103061.31;5134664;27;20039;-77
2023/05/18 10:49:41;;;;;;;9.20;3.05;;;;;;;20.18;38.50;103055.56;5137432;27;20545;-77
2023/05/18 10:52:10;;;;;;;11.50;3.05;;;;;;;20.31;41.48;103054.38;5137278;27;20084;-78
2023/05/18 10:54:37;;;;;;;13.73;2.88;;;;;;;20.68;39.30;103054.31;5136997;27;20513;-78
2023/05/18 10:57:03;;;;;;;9.13;2.75;;;;;;;20.66;38.15;103052.75;5137248;27;20391;-77
2023/05/18 10:59:28;;;;;;;209.25;11.68;;;;;;;20.03;39.64;103048.94;5137682;27;20031;-77
2023/05/18 11:01:56;;;;;;;12.60;2.97;;;;;;;19.50;40.88;103044.94;5137757;27;20061;-76
2023/05/18 11:04:25;;;;;;;9.48;2.72;;;;;;;19.71;40.08;103042.88;5137729;27;20032;-76
2023/05/18 11:06:57;;;;;;;11.02;3.08;;;;;;;19.22;38.12;103039.41;5137251;27;20027;-75
2023/05/18 11:09:26;;;;;;;6.05;2.53;;;;;;;19.45;40.91;103037.28;5136000;27;20038;-76
2023/05/18 11:11:55;;;;;;;12.07;2.90;;;;;;;19.89;39.16;103031.38;5136566;27;20074;-76
2023/05/18 11:14:26;;;;;;;14.00;2.92;;;;;;;19.36;39.67;103038.13;5136990;27;20039;-77
2023/05/18 11:16:51;;;;;;;18.30;3.15;;;;;;;19.99;43.44;103036.72;5136751;27;20395;-77
2023/05/18 11:19:19;;;;;;;12.02;3.17;;;;;;;20.32;39.50;103040.69;5137236;27;20074;-77